createdAt,value
2023-04-18T00:02:07.216Z,18.92
2023-04-18T00:04:35.676Z,19.18
2023-04-18T00:07:04.132Z,19.37
2023-04-18T00:09:32.435Z,19.36
2023-04-18T00:12:01.630Z,19.47
2023-04-18T00:14:30.169Z,19.33
2023-04-18T00:16:58.522Z,19.33
2023-04-18T00:19:28.281Z,19.49
2023-04-18T00:21:58.080Z,19.39
2023-04-18T00:24:27.025Z,19.26
2023-04-18T00:26:55.513Z,19.27
2023-04-18T00:29:23.789Z,19.28
2023-04-18T00:31:52.073Z,18.84
2023-04-18T00:34:20.437Z,18.82
2023-04-18T00:36:50.062Z,19.06
2023-04-18T00:39:18.295Z,19.01
2023-04-18T00:41:46.650Z,19.10
2023-04-18T00:44:15.067Z,19.18
2023-04-18T00:46:43.382Z,19.12
2023-04-18T00:49:12.971Z,19.15
2023-04-18T00:51:41.374Z,19.27
2023-04-18T00:54:13.454Z,19.33
2023-04-18T00:56:42.145Z,18.83
2023-04-18T00:59:10.785Z,18.80
2023-04-18T01:01:40.313Z,18.55
2023-04-18T01:04:09.429Z,18.72
2023-04-18T01:06:38.000Z,18.94
2023-04-18T01:09:06.663Z,18.63
2023-04-18T01:11:36.380Z,18.52
2023-04-18T01:14:05.929Z,18.90
2023-04-18T01:16:34.827Z,18.52
2023-04-18T01:19:03.729Z,18.30
2023-04-18T01:21:33.930Z,18.71
2023-04-18T01:24:09.293Z,18.63
2023-04-18T01:26:37.590Z,18.79
2023-04-18T01:29:06.313Z,18.57
2023-04-18T01:31:36.079Z,18.27
2023-04-18T01:34:04.431Z,18.52
2023-04-18T01:36:33.158Z,18.38
2023-04-18T01:39:01.833Z,18.80
2023-04-18T01:41:32.880Z,18.19
2023-04-18T01:44:01.817Z,18.26
2023-04-18T01:46:30.168Z,18.13
2023-04-18T01:49:00.768Z,18.09
2023-04-18T01:51:28.930Z,18.31
2023-04-18T01:53:57.141Z,18.04
2023-04-18T01:56:25.370Z,18.39
2023-04-18T01:58:54.957Z,17.73
2023-04-18T02:01:23.307Z,18.07
2023-04-18T02:03:51.783Z,18.39
2023-04-18T02:06:20.248Z,18.35
2023-04-18T02:08:48.539Z,18.66
2023-04-18T02:11:16.822Z,17.83
2023-04-18T02:13:45.054Z,18.68
2023-04-18T02:16:14.866Z,18.38
2023-04-18T02:18:44.778Z,18.18
2023-04-18T02:21:13.230Z,18.62
2023-04-18T02:23:41.608Z,18.41
2023-04-18T02:26:09.889Z,18.79
2023-04-18T02:28:39.193Z,18.53
2023-04-18T02:31:14.481Z,18.49
2023-04-18T02:33:45.395Z,18.31
2023-04-18T02:36:13.804Z,18.27
2023-04-18T02:38:42.173Z,18.76
2023-04-18T02:41:14.998Z,18.84
2023-04-18T02:43:43.744Z,18.21
2023-04-18T02:46:12.030Z,18.18
2023-04-18T02:48:40.342Z,18.53
2023-04-18T02:51:10.840Z,17.61
2023-04-18T02:53:39.120Z,17.52
2023-04-18T02:56:08.485Z,17.31
2023-04-18T02:58:37.000Z,17.31
2023-04-18T03:01:05.321Z,17.05
2023-04-18T03:03:33.634Z,17.96
2023-04-18T03:06:01.940Z,17.47
2023-04-18T03:08:31.579Z,17.94
2023-04-18T03:11:00.035Z,17.63
2023-04-18T03:13:28.277Z,17.78
2023-04-18T03:15:56.503Z,17.57
2023-04-18T03:18:24.814Z,17.85
2023-04-18T03:20:53.220Z,17.99
2023-04-18T03:23:21.943Z,17.93
2023-04-18T03:25:51.564Z,18.01
2023-04-18T03:28:19.890Z,17.92
2023-04-18T03:30:48.215Z,17.62
2023-04-18T03:33:17.134Z,17.22
2023-04-18T03:35:45.465Z,17.82
2023-04-18T03:38:13.669Z,17.83
2023-04-18T03:40:44.541Z,17.44
2023-04-18T03:43:14.673Z,17.43
2023-04-18T03:45:44.104Z,17.25
2023-04-18T03:48:12.426Z,17.30
2023-04-18T03:50:40.910Z,17.10
2023-04-18T03:53:09.134Z,17.16
2023-04-18T03:55:37.503Z,16.75
2023-04-18T03:58:05.769Z,16.76
2023-04-18T04:00:35.488Z,17.06
2023-04-18T04:03:04.001Z,16.98
2023-04-18T04:05:32.403Z,16.85
2023-04-18T04:08:00.647Z,16.70
2023-04-18T04:10:29.054Z,16.85
2023-04-18T04:12:57.338Z,16.58
2023-04-18T04:15:25.562Z,16.92
2023-04-18T04:17:55.232Z,16.12
2023-04-18T04:20:24.837Z,16.45
2023-04-18T04:22:53.993Z,16.90
2023-04-18T04:25:23.930Z,17.02
2023-04-18T04:27:53.700Z,16.26
2023-04-18T04:30:22.737Z,16.28
2023-04-18T04:32:51.121Z,16.01
2023-04-18T04:35:22.402Z,15.86
2023-04-18T04:37:51.728Z,16.16
2023-04-18T04:40:20.106Z,16.14
2023-04-18T04:42:49.206Z,16.49
2023-04-18T04:45:17.668Z,16.76
2023-04-18T04:47:46.000Z,16.87
2023-04-18T04:50:15.827Z,16.84
2023-04-18T04:52:45.573Z,16.75
2023-04-18T04:55:13.978Z,17.03
2023-04-18T04:57:42.248Z,16.37
2023-04-18T05:00:13.715Z,17.16
2023-04-18T05:02:41.998Z,16.60
2023-04-18T05:05:10.680Z,16.94
2023-04-18T05:07:38.939Z,17.71
2023-04-18T05:10:14.379Z,17.45
2023-04-18T05:12:42.790Z,17.17
2023-04-18T05:15:12.375Z,17.15
2023-04-18T05:17:40.722Z,17.17
2023-04-18T05:20:10.416Z,17.58
2023-04-18T05:22:38.730Z,17.21
2023-04-18T05:25:09.442Z,16.81
2023-04-18T05:27:37.678Z,16.68
2023-04-18T05:30:07.024Z,16.61
2023-04-18T05:32:35.327Z,16.41
2023-04-18T05:35:03.770Z,16.91
2023-04-18T05:37:32.077Z,16.62
2023-04-18T05:40:01.071Z,15.87
2023-04-18T05:42:30.886Z,17.53
2023-04-18T05:44:59.317Z,16.94
2023-04-18T05:47:28.632Z,17.55
2023-04-18T05:49:57.000Z,17.86
2023-04-18T05:52:26.133Z,16.44
2023-04-18T05:54:54.431Z,16.64
2023-04-18T05:57:22.697Z,16.80
2023-04-18T05:59:52.384Z,16.96
2023-04-18T06:02:21.160Z,17.47
2023-04-18T06:04:50.051Z,17.46
2023-04-18T06:07:18.421Z,17.49
2023-04-18T06:09:46.758Z,16.75
2023-04-18T06:12:15.034Z,16.76
2023-04-18T06:14:43.332Z,17.89
2023-04-18T06:17:13.991Z,16.76
2023-04-18T06:19:42.113Z,17.03
2023-04-18T06:22:10.277Z,17.09
2023-04-18T06:24:38.556Z,17.16
2023-04-18T06:27:09.376Z,17.15
2023-04-18T06:29:43.867Z,17.32
2023-04-18T06:32:13.462Z,17.66
2023-04-18T06:34:41.726Z,17.55
2023-04-18T06:37:09.977Z,16.99
2023-04-18T06:39:38.263Z,17.80
2023-04-18T06:42:06.620Z,17.72
2023-04-18T06:44:36.004Z,18.40
2023-04-18T06:47:04.362Z,17.43
2023-04-18T06:49:33.962Z,18.66
2023-04-18T06:52:02.277Z,18.17
2023-04-18T06:54:30.592Z,18.60
2023-04-18T06:56:58.812Z,18.84
2023-04-18T06:59:27.101Z,18.28
2023-04-18T07:01:55.390Z,18.69
2023-04-18T07:04:23.826Z,19.34
2023-04-18T07:06:54.065Z,18.84
2023-04-18T07:09:22.766Z,18.07
2023-04-18T07:11:52.684Z,18.72
2023-04-18T07:14:23.692Z,19.02
2023-04-18T07:16:52.002Z,19.24
2023-04-18T07:19:20.298Z,19.67
2023-04-18T07:21:48.705Z,18.51
2023-04-18T07:24:18.331Z,18.16
2023-04-18T07:26:46.570Z,18.16
2023-04-18T07:29:14.835Z,18.73
2023-04-18T07:31:43.065Z,18.02
2023-04-18T07:34:11.751Z,18.29
2023-04-18T07:36:40.314Z,19.04
2023-04-18T07:39:08.592Z,19.19
2023-04-18T07:41:38.234Z,19.48
2023-04-18T07:44:06.698Z,19.11
2023-04-18T07:46:35.091Z,19.42
2023-04-18T07:49:03.620Z,20.53
2023-04-18T07:51:32.339Z,19.69
2023-04-18T07:54:00.705Z,19.98
2023-04-18T07:56:43.807Z,19.79
2023-04-18T07:59:13.837Z,20.26
2023-04-18T08:01:42.269Z,19.84
2023-04-18T08:04:11.019Z,21.30
2023-04-18T08:06:39.558Z,20.17
2023-04-18T08:09:08.217Z,21.15
2023-04-18T08:11:36.545Z,20.27
2023-04-18T08:14:04.780Z,20.52
2023-04-18T08:16:34.442Z,20.92
2023-04-18T08:19:02.718Z,20.49
2023-04-18T08:21:31.129Z,20.15
2023-04-18T08:23:59.715Z,21.03
2023-04-18T08:26:28.205Z,21.74
2023-04-18T08:28:56.564Z,20.57
2023-04-18T08:31:25.020Z,20.91
2023-04-18T08:33:54.811Z,22.55
2023-04-18T08:36:24.876Z,21.40
2023-04-18T08:38:53.306Z,21.08
2023-04-18T08:41:23.170Z,20.79
2023-04-18T08:43:51.854Z,20.32
2023-04-18T08:46:20.230Z,20.18
2023-04-18T08:48:51.315Z,20.59
2023-04-18T08:51:21.609Z,20.76
2023-04-18T08:53:50.616Z,20.86
2023-04-18T08:56:22.386Z,21.17
2023-04-18T08:58:50.870Z,21.22
2023-04-18T09:01:19.159Z,21.14
2023-04-18T09:03:47.670Z,21.94
2023-04-18T09:06:19.362Z,21.01
2023-04-18T09:08:59.134Z,21.40
2023-04-18T09:11:29.007Z,21.32
2023-04-18T09:14:10.905Z,22.28
2023-04-18T09:16:47.215Z,21.68
2023-04-18T09:19:18.895Z,21.71
2023-04-18T09:21:48.706Z,22.39
2023-04-18T09:24:24.115Z,22.46
2023-04-18T09:26:53.679Z,23.07
2023-04-18T09:29:23.433Z,21.94
2023-04-18T09:31:57.329Z,21.44
2023-04-18T09:34:26.466Z,21.74
2023-04-18T09:37:08.427Z,21.94
2023-04-18T09:39:38.836Z,21.97
2023-04-18T09:42:08.014Z,22.09
2023-04-18T09:44:36.346Z,22.91
2023-04-18T09:47:04.636Z,22.71
2023-04-18T09:49:33.751Z,22.30
2023-04-18T09:52:04.685Z,22.45
2023-04-18T09:54:34.383Z,21.54
2023-04-18T09:57:05.062Z,22.74
2023-04-18T09:59:43.066Z,21.97
2023-04-18T10:02:16.448Z,22.87
2023-04-18T10:04:45.726Z,22.47
2023-04-18T10:07:14.373Z,21.48
2023-04-18T10:09:51.847Z,21.58
2023-04-18T10:12:21.941Z,22.40
2023-04-18T10:14:54.812Z,22.94
2023-04-18T10:17:23.180Z,23.34
2023-04-18T10:20:08.021Z,24.06
2023-04-18T10:22:36.626Z,24.17
2023-04-18T10:25:06.222Z,23.23
2023-04-18T10:28:01.259Z,23.25
2023-04-18T10:30:55.050Z,23.26
2023-04-18T10:33:30.822Z,22.44
2023-04-18T10:36:06.153Z,22.71
2023-04-18T10:38:35.346Z,22.07
2023-04-18T10:41:17.258Z,22.60
2023-04-18T10:44:22.719Z,22.94
2023-04-18T10:47:22.212Z,22.23
2023-04-18T10:49:58.313Z,21.37
2023-04-18T10:52:26.918Z,21.84
2023-04-18T10:55:02.635Z,21.33
2023-04-18T10:57:39.167Z,21.93
2023-04-18T11:00:13.196Z,22.48
2023-04-18T11:02:49.294Z,22.35
2023-04-18T11:05:22.692Z,21.90
2023-04-18T11:07:51.186Z,22.34
2023-04-18T11:10:20.979Z,22.35
2023-04-18T11:12:49.573Z,23.07
2023-04-18T11:15:22.112Z,23.59
2023-04-18T11:17:58.527Z,22.95
2023-04-18T11:20:26.933Z,22.84
2023-04-18T11:22:56.654Z,22.64
2023-04-18T11:25:27.526Z,22.46
2023-04-18T11:27:56.196Z,23.32
2023-04-18T11:30:26.102Z,23.81
2023-04-18T11:32:55.072Z,23.67
2023-04-18T11:35:23.497Z,24.15
2023-04-18T11:37:52.057Z,23.76
2023-04-18T11:40:20.424Z,22.79
2023-04-18T11:42:48.680Z,23.79
2023-04-18T11:45:17.165Z,23.57
2023-04-18T11:47:47.407Z,22.46
2023-04-18T11:50:15.749Z,22.79
2023-04-18T11:52:44.058Z,22.18
2023-04-18T11:55:17.881Z,21.76
2023-04-18T11:57:53.935Z,21.45
2023-04-18T12:00:33.629Z,20.96
2023-04-18T12:03:13.346Z,21.27
2023-04-18T12:05:43.279Z,21.00
2023-04-18T12:08:13.228Z,21.38
2023-04-18T12:10:47.723Z,20.97
2023-04-18T12:13:16.266Z,21.47
2023-04-18T12:15:45.705Z,20.79
2023-04-18T12:18:16.806Z,21.30
2023-04-18T12:20:50.383Z,21.32
2023-04-18T12:23:35.550Z,21.81
2023-04-18T12:26:04.927Z,21.39
2023-04-18T12:28:34.301Z,21.69
2023-04-18T12:31:02.738Z,22.10
2023-04-18T12:33:32.779Z,21.29
2023-04-18T12:36:01.065Z,22.04
2023-04-18T12:38:29.439Z,22.87
2023-04-18T12:40:57.786Z,22.37
2023-04-18T12:43:26.615Z,22.40
2023-04-18T12:45:55.234Z,22.62
2023-04-18T12:48:23.491Z,22.75
2023-04-18T12:50:53.228Z,23.03
2023-04-18T12:53:21.633Z,22.41
2023-04-18T12:55:50.029Z,23.16
2023-04-18T12:58:20.597Z,21.90
2023-04-18T13:00:48.810Z,22.51
2023-04-18T13:03:17.375Z,23.28
2023-04-18T13:05:46.097Z,22.76
2023-04-18T13:08:17.952Z,23.65
2023-04-18T13:10:47.689Z,22.17
2023-04-18T13:13:16.260Z,22.51
2023-04-18T13:15:44.594Z,22.61
2023-04-18T13:18:12.784Z,22.08
2023-04-18T13:20:41.108Z,21.52
2023-04-18T13:23:09.373Z,21.37
2023-04-18T13:25:39.404Z,21.81
2023-04-18T13:28:07.722Z,22.16
2023-04-18T13:30:36.632Z,22.31
2023-04-18T13:33:05.036Z,20.78
2023-04-18T13:35:33.359Z,20.91
2023-04-18T13:38:01.567Z,20.90
2023-04-18T13:40:29.883Z,20.62
2023-04-18T13:42:59.491Z,21.39
2023-04-18T13:45:27.783Z,21.52
2023-04-18T13:47:56.087Z,20.95
2023-04-18T13:50:24.507Z,21.06
2023-04-18T13:52:54.500Z,21.89
2023-04-18T13:55:22.935Z,21.49
2023-04-18T13:57:51.318Z,22.45
2023-04-18T14:00:21.624Z,21.87
2023-04-18T14:02:50.401Z,21.31
2023-04-18T14:05:18.877Z,21.90
2023-04-18T14:07:48.540Z,21.55
2023-04-18T14:10:16.906Z,22.11
2023-04-18T14:12:45.270Z,21.40
2023-04-18T14:15:13.550Z,21.00
2023-04-18T14:17:45.458Z,20.86
2023-04-18T14:20:15.692Z,21.42
2023-04-18T14:22:43.974Z,21.29
2023-04-18T14:25:12.379Z,21.28
2023-04-18T14:27:40.733Z,21.55
2023-04-18T14:30:10.285Z,21.99
2023-04-18T14:32:38.602Z,21.95
2023-04-18T14:35:09.459Z,21.80
2023-04-18T14:37:37.734Z,21.54
2023-04-18T14:40:08.200Z,20.65
2023-04-18T14:42:36.476Z,20.95
2023-04-18T14:45:05.570Z,21.55
2023-04-18T14:47:34.834Z,21.86
2023-04-18T14:50:03.261Z,21.94
2023-04-18T14:52:32.944Z,21.59
2023-04-18T14:55:01.244Z,21.42
2023-04-18T14:57:29.512Z,21.40
2023-04-18T14:59:57.800Z,21.05
2023-04-18T15:02:26.308Z,21.78
2023-04-18T15:04:55.085Z,21.57
2023-04-18T15:07:23.397Z,21.28
2023-04-18T15:09:53.335Z,22.02
2023-04-18T15:12:21.555Z,20.94
2023-04-18T15:14:49.846Z,21.14
2023-04-18T15:17:18.154Z,21.10
2023-04-18T15:19:46.416Z,21.63
2023-04-18T15:22:14.751Z,21.26
2023-04-18T15:24:43.068Z,21.32
2023-04-18T15:27:12.892Z,22.27
2023-04-18T15:29:41.154Z,21.43
2023-04-18T15:32:10.121Z,21.93
2023-04-18T15:34:38.416Z,22.03
2023-04-18T15:37:07.055Z,22.23
2023-04-18T15:39:35.487Z,22.03
2023-04-18T15:42:03.825Z,22.52
2023-04-18T15:44:33.440Z,22.37
2023-04-18T15:47:01.895Z,22.65
2023-04-18T15:49:30.281Z,22.83
2023-04-18T15:51:58.631Z,23.11
2023-04-18T15:54:27.104Z,22.35
2023-04-18T15:56:55.567Z,23.14
2023-04-18T15:59:23.828Z,23.57
2023-04-18T16:01:53.496Z,22.85
2023-04-18T16:04:21.899Z,23.20
2023-04-18T16:06:50.261Z,21.99
2023-04-18T16:09:18.548Z,21.80
2023-04-18T16:11:46.831Z,22.02
2023-04-18T16:14:15.263Z,21.48
2023-04-18T16:16:43.733Z,21.23
2023-04-18T16:19:14.312Z,21.94
2023-04-18T16:21:42.338Z,22.49
2023-04-18T16:24:10.675Z,20.91
2023-04-18T16:26:38.894Z,21.80
2023-04-18T16:29:07.181Z,21.23
2023-04-18T16:31:35.601Z,21.19
2023-04-18T16:34:04.179Z,21.49
2023-04-18T16:36:35.683Z,21.89
2023-04-18T16:39:04.704Z,21.56
2023-04-18T16:41:33.051Z,20.96
2023-04-18T16:44:01.313Z,20.40
2023-04-18T16:46:32.324Z,20.93
2023-04-18T16:49:01.577Z,20.78
2023-04-18T16:51:29.890Z,20.95
2023-04-18T16:53:59.524Z,21.48
2023-04-18T16:56:27.787Z,21.31
2023-04-18T16:58:56.116Z,21.56
2023-04-18T17:01:24.414Z,21.87
2023-04-18T17:03:52.923Z,21.67
2023-04-18T17:06:22.820Z,22.35
2023-04-18T17:08:53.441Z,22.20
2023-04-18T17:11:23.231Z,22.10
2023-04-18T17:13:51.456Z,21.45
2023-04-18T17:16:19.792Z,21.75
2023-04-18T17:18:48.077Z,21.43
2023-04-18T17:21:16.357Z,20.90
2023-04-18T17:23:44.665Z,21.35
2023-04-18T17:26:13.005Z,22.09
2023-04-18T17:28:43.020Z,21.93
2023-04-18T17:31:11.615Z,21.28
2023-04-18T17:33:39.970Z,21.57
2023-04-18T17:36:08.766Z,21.45
2023-04-18T17:38:37.116Z,21.37
2023-04-18T17:41:05.811Z,21.33
2023-04-18T17:43:34.126Z,21.89
2023-04-18T17:46:04.009Z,21.92
2023-04-18T17:48:32.337Z,22.22
2023-04-18T17:51:00.733Z,21.82
2023-04-18T17:53:31.583Z,21.77
2023-04-18T17:56:00.628Z,21.66
2023-04-18T17:58:29.388Z,20.85
2023-04-18T18:00:57.732Z,21.14
2023-04-18T18:03:27.693Z,19.68
2023-04-18T18:05:56.079Z,20.57
2023-04-18T18:08:24.361Z,19.98
2023-04-18T18:10:52.671Z,20.36
2023-04-18T18:15:48.823Z,19.61
2023-04-18T18:18:17.052Z,19.80
2023-04-18T18:20:46.695Z,20.20
2023-04-18T18:23:14.952Z,19.58
2023-04-18T18:25:43.363Z,19.98
2023-04-18T18:28:11.793Z,20.00
2023-04-18T18:30:40.032Z,19.64
2023-04-18T18:33:08.372Z,20.16
2023-04-18T18:35:37.040Z,20.55
2023-04-18T18:38:07.202Z,21.31
2023-04-18T18:40:35.600Z,20.52
2023-04-18T18:43:03.872Z,20.30
2023-04-18T18:45:32.107Z,20.46
2023-04-18T18:48:00.542Z,19.84
2023-04-18T18:50:28.826Z,20.11
2023-04-18T18:52:57.105Z,19.82
2023-04-18T18:55:26.887Z,19.13
2023-04-18T18:57:55.356Z,19.88
2023-04-18T19:00:23.821Z,20.63
2023-04-18T19:02:52.360Z,20.50
2023-04-18T19:05:21.179Z,19.80
2023-04-18T19:07:51.457Z,20.36
2023-04-18T19:10:19.861Z,19.80
2023-04-18T19:12:49.748Z,20.36
2023-04-18T19:15:18.084Z,20.12
2023-04-18T19:17:46.356Z,20.84
2023-04-18T19:20:14.673Z,19.65
2023-04-18T19:22:43.019Z,20.12
2023-04-18T19:25:11.572Z,20.07
2023-04-18T19:27:39.871Z,19.25
2023-04-18T19:30:10.701Z,19.50
2023-04-18T19:32:39.033Z,19.91
2023-04-18T19:35:09.878Z,19.59
2023-04-18T19:37:38.158Z,19.83
2023-04-18T19:40:07.781Z,19.59
2023-04-18T19:42:36.034Z,19.64
2023-04-18T19:45:04.866Z,20.22
2023-04-18T19:47:34.762Z,19.96
2023-04-18T19:50:03.117Z,19.87
2023-04-18T19:52:31.345Z,19.67
2023-04-18T19:54:59.568Z,19.83
2023-04-18T19:57:29.023Z,20.15
2023-04-18T19:59:57.272Z,19.98
2023-04-18T20:02:25.625Z,20.22
2023-04-18T20:04:55.401Z,19.62
2023-04-18T20:07:26.251Z,19.16
2023-04-18T20:09:54.687Z,19.55
2023-04-18T20:12:23.450Z,20.11
2023-04-18T20:14:51.916Z,20.38
2023-04-18T20:17:20.424Z,20.33
2023-04-18T20:19:49.735Z,20.74
2023-04-18T20:22:19.793Z,20.35
2023-04-18T20:24:48.779Z,20.76
2023-04-18T20:27:20.356Z,20.50
2023-04-18T20:29:48.692Z,20.46
2023-04-18T20:32:17.007Z,20.70
2023-04-18T20:34:45.759Z,20.97
2023-04-18T20:37:15.545Z,20.69
2023-04-18T20:39:45.587Z,21.24
2023-04-18T20:42:14.767Z,21.11
2023-04-18T20:44:44.783Z,21.25
2023-04-18T20:47:15.242Z,21.26
2023-04-18T20:49:44.092Z,21.22
2023-04-18T20:52:14.361Z,20.70
2023-04-18T20:54:42.829Z,20.89
2023-04-18T20:57:12.427Z,21.25
2023-04-18T20:59:40.654Z,21.27
2023-04-18T21:02:09.437Z,21.44
2023-04-18T21:04:38.058Z,21.42
2023-04-18T21:07:06.430Z,21.27
2023-04-18T21:09:36.559Z,20.33
2023-04-18T21:12:05.834Z,21.15
2023-04-18T21:14:35.452Z,20.95
2023-04-18T21:17:03.816Z,21.23
2023-04-18T21:19:32.034Z,20.81
2023-04-18T21:22:00.277Z,20.42
2023-04-18T21:24:28.544Z,20.91
2023-04-18T21:26:57.730Z,20.97
2023-04-18T21:29:26.046Z,20.21
2023-04-18T21:31:55.927Z,20.46
2023-04-18T21:34:24.256Z,20.48
2023-04-18T21:36:52.504Z,20.51
2023-04-18T21:39:20.825Z,20.15
2023-04-18T21:41:49.090Z,20.24
2023-04-18T21:44:18.865Z,20.89
2023-04-18T21:46:47.185Z,21.19
2023-04-18T21:49:16.869Z,20.90
2023-04-18T21:51:45.870Z,20.95
2023-04-18T21:54:14.304Z,21.25
2023-04-18T21:56:42.910Z,21.24
2023-04-18T21:59:11.256Z,21.16
2023-04-18T22:01:39.629Z,21.16
2023-04-18T22:04:08.430Z,20.57
2023-04-18T22:06:38.106Z,21.13
2023-04-18T22:09:06.575Z,21.24
2023-04-18T22:11:34.906Z,21.25
2023-04-18T22:14:03.165Z,21.32
2023-04-18T22:16:33.386Z,21.31
2023-04-18T22:19:02.549Z,20.92
2023-04-18T22:21:31.383Z,21.08
2023-04-18T22:24:01.450Z,20.83
2023-04-18T22:26:30.199Z,20.96
2023-04-18T22:28:58.490Z,21.21
2023-04-18T22:31:26.804Z,21.14
2023-04-18T22:33:55.217Z,21.35
2023-04-18T22:36:23.471Z,21.19
2023-04-18T22:38:51.708Z,20.91
2023-04-18T22:41:21.275Z,21.31
2023-04-18T22:43:49.552Z,21.35
2023-04-18T22:46:17.846Z,21.26
2023-04-18T22:48:46.237Z,20.73
2023-04-18T22:51:14.888Z,20.53
2023-04-18T22:53:43.122Z,21.12
2023-04-18T22:56:11.461Z,20.70
2023-04-18T22:58:41.124Z,20.87
2023-04-18T23:01:09.460Z,20.53
2023-04-18T23:03:37.969Z,20.78
2023-04-18T23:06:08.132Z,20.44
2023-04-18T23:08:36.374Z,20.73
2023-04-18T23:11:04.658Z,21.01
2023-04-18T23:13:32.888Z,20.61
2023-04-18T23:16:02.528Z,20.80
2023-04-18T23:18:31.536Z,20.92
2023-04-18T23:23:28.987Z,20.24
2023-04-18T23:25:57.361Z,20.60
2023-04-18T23:28:25.678Z,20.55
2023-04-18T23:30:53.937Z,20.67
2023-04-18T23:33:23.591Z,20.61
2023-04-18T23:35:51.863Z,20.20
2023-04-18T23:38:20.305Z,20.25
2023-04-18T23:40:48.550Z,19.85
2023-04-18T23:43:16.812Z,19.86
2023-04-18T23:45:45.355Z,20.06
2023-04-18T23:48:13.854Z,20.04
2023-04-18T23:50:48.072Z,20.02
2023-04-18T23:53:17.386Z,20.23
2023-04-18T23:55:46.152Z,20.63
2023-04-18T23:58:14.863Z,20.99
